createdAt,value
2022-10-17T00:00:00.106Z,19.33
2022-10-17T00:02:27.345Z,18.77
2022-10-17T00:04:54.570Z,18.15
2022-10-17T00:07:21.848Z,16.80
2022-10-17T00:09:49.128Z,19.17
2022-10-17T00:12:16.403Z,17.17
2022-10-17T00:14:43.808Z,16.88
2022-10-17T00:17:11.127Z,20.40
2022-10-17T00:19:38.328Z,20.23
2022-10-17T00:22:05.550Z,19.48
2022-10-17T00:24:33.043Z,17.27
2022-10-17T00:27:00.287Z,18.55
2022-10-17T00:29:27.564Z,23.38
2022-10-17T00:31:58.289Z,15.82
2022-10-17T00:34:26.082Z,19.00
2022-10-17T00:36:53.362Z,18.92
2022-10-17T00:39:21.043Z,21.45
2022-10-17T00:41:48.542Z,20.88
2022-10-17T00:44:30.888Z,14.77
2022-10-17T00:47:01.489Z,18.08
2022-10-17T00:49:33.206Z,15.77
2022-10-17T00:52:05.088Z,16.02
2022-10-17T00:54:37.442Z,15.20
2022-10-17T00:57:05.167Z,12.25
2022-10-17T00:59:34.450Z,15.40
2022-10-17T01:02:11.047Z,21.00
2022-10-17T01:04:41.442Z,13.40
2022-10-17T01:07:09.249Z,13.52
2022-10-17T01:09:37.169Z,15.73
2022-10-17T01:12:10.327Z,17.45
2022-10-17T01:14:52.603Z,12.82
2022-10-17T01:17:46.407Z,12.52
2022-10-17T01:20:44.387Z,19.95
2022-10-17T01:23:35.828Z,14.82
2022-10-17T01:26:24.279Z,14.75
2022-10-17T01:29:22.120Z,14.15
2022-10-17T01:32:07.711Z,15.52
2022-10-17T01:34:44.908Z,11.30
2022-10-17T01:37:24.090Z,10.05
2022-10-17T01:39:54.231Z,11.63
2022-10-17T01:42:31.030Z,12.52
2022-10-17T01:45:10.242Z,14.80
2022-10-17T01:47:38.458Z,11.00
2022-10-17T01:50:15.612Z,13.75
2022-10-17T01:52:48.367Z,10.05
2022-10-17T01:55:26.449Z,16.55
2022-10-17T01:58:01.401Z,7.45
2022-10-17T02:00:30.161Z,10.13
2022-10-17T02:03:02.333Z,10.18
2022-10-17T02:05:33.841Z,12.45
2022-10-17T02:08:01.022Z,8.55
2022-10-17T02:10:36.299Z,13.85
2022-10-17T02:13:41.291Z,14.40
2022-10-17T02:16:19.679Z,10.48
2022-10-17T02:19:08.793Z,13.07
2022-10-17T02:21:50.001Z,13.77
2022-10-17T02:24:49.076Z,10.25
2022-10-17T02:27:42.811Z,10.23
2022-10-17T02:30:42.212Z,12.52
2022-10-17T02:33:27.236Z,9.55
2022-10-17T02:35:58.079Z,13.70
2022-10-17T02:38:27.346Z,12.55
2022-10-17T02:40:55.186Z,17.52
2022-10-17T02:43:23.238Z,9.68
2022-10-17T02:45:51.992Z,13.95
2022-10-17T02:48:42.701Z,13.18
2022-10-17T02:51:15.887Z,14.25
2022-10-17T02:53:58.157Z,9.98
2022-10-17T02:56:26.893Z,15.27
2022-10-17T02:59:00.209Z,11.57
2022-10-17T03:01:29.545Z,11.07
2022-10-17T03:04:15.201Z,10.75
2022-10-17T03:06:42.717Z,12.85
2022-10-17T03:09:09.929Z,14.82
2022-10-17T03:11:37.285Z,11.40
2022-10-17T03:14:04.640Z,9.30
2022-10-17T03:16:31.778Z,11.95
2022-10-17T03:19:00.048Z,12.70
2022-10-17T03:21:27.228Z,11.13
2022-10-17T03:23:54.414Z,9.80
2022-10-17T03:26:21.633Z,20.52
2022-10-17T03:28:51.930Z,15.10
2022-10-17T03:31:22.145Z,14.52
2022-10-17T03:33:49.350Z,26.15
2022-10-17T03:36:19.443Z,48.10
2022-10-17T03:38:46.713Z,14.05
2022-10-17T03:41:13.992Z,20.20
2022-10-17T03:43:41.161Z,15.80
2022-10-17T03:46:08.576Z,11.52
2022-10-17T03:48:35.926Z,14.88
2022-10-17T03:51:06.722Z,9.57
2022-10-17T03:53:34.205Z,12.77
2022-10-17T03:56:30.901Z,13.25
2022-10-17T03:58:57.982Z,16.63
2022-10-17T04:01:25.324Z,14.00
2022-10-17T04:03:54.266Z,9.65
2022-10-17T04:06:21.722Z,15.07
2022-10-17T04:08:49.034Z,11.13
2022-10-17T04:11:20.084Z,13.52
2022-10-17T04:13:47.798Z,10.43
2022-10-17T04:16:17.120Z,16.90
2022-10-17T04:18:45.048Z,11.35
2022-10-17T04:21:13.131Z,9.77
2022-10-17T04:23:40.541Z,9.32
2022-10-17T04:26:07.826Z,17.70
2022-10-17T04:28:35.138Z,19.98
2022-10-17T04:31:07.906Z,13.75
2022-10-17T04:33:35.381Z,14.80
2022-10-17T04:36:05.380Z,10.68
2022-10-17T04:38:32.922Z,16.23
2022-10-17T04:41:03.858Z,14.10
2022-10-17T04:43:31.990Z,16.40
2022-10-17T04:46:01.553Z,11.90
2022-10-17T04:48:30.102Z,11.43
2022-10-17T04:50:59.529Z,13.63
2022-10-17T04:53:27.286Z,17.27
2022-10-17T04:55:54.864Z,17.38
2022-10-17T04:58:22.335Z,11.85
2022-10-17T05:00:49.606Z,13.25
2022-10-17T05:03:17.246Z,15.73
2022-10-17T05:05:44.402Z,15.07
2022-10-17T05:08:12.453Z,14.18
2022-10-17T05:10:44.891Z,13.43
2022-10-17T05:13:12.868Z,13.52
2022-10-17T05:15:40.195Z,16.95
2022-10-17T05:18:07.741Z,15.48
2022-10-17T05:20:35.618Z,13.73
2022-10-17T05:23:02.908Z,13.38
2022-10-17T05:25:30.049Z,13.13
2022-10-17T05:27:57.237Z,12.43
2022-10-17T05:30:24.387Z,15.18
2022-10-17T05:32:55.348Z,16.20
2022-10-17T05:35:22.992Z,11.35
2022-10-17T05:37:50.254Z,13.77
2022-10-17T05:40:17.663Z,13.15
2022-10-17T05:42:49.137Z,20.70
2022-10-17T05:45:16.794Z,13.70
2022-10-17T05:47:43.989Z,18.70
2022-10-17T05:50:12.536Z,15.13
2022-10-17T05:52:40.544Z,14.48
2022-10-17T05:55:09.599Z,10.50
2022-10-17T05:57:36.842Z,17.23
2022-10-17T06:00:05.259Z,14.70
2022-10-17T06:02:33.192Z,16.15
2022-10-17T06:05:00.693Z,14.45
2022-10-17T06:07:28.028Z,14.50
2022-10-17T06:09:55.220Z,15.73
2022-10-17T06:12:22.380Z,15.02
2022-10-17T06:14:49.604Z,11.35
2022-10-17T06:17:17.207Z,18.00
2022-10-17T06:19:45.131Z,15.90
2022-10-17T06:22:12.709Z,12.23
2022-10-17T06:24:39.888Z,12.57
2022-10-17T06:27:11.006Z,15.43
2022-10-17T06:29:39.623Z,10.85
2022-10-17T06:32:09.786Z,10.45
2022-10-17T06:34:39.813Z,13.57
2022-10-17T06:37:07.211Z,18.85
2022-10-17T06:39:36.035Z,16.75
2022-10-17T06:42:04.429Z,10.63
2022-10-17T06:44:32.139Z,12.48
2022-10-17T06:47:00.865Z,16.52
2022-10-17T06:49:28.529Z,19.80
2022-10-17T06:51:55.798Z,13.98
2022-10-17T06:54:23.190Z,14.73
2022-10-17T06:56:50.411Z,15.95
2022-10-17T06:59:17.618Z,12.82
2022-10-17T07:01:47.072Z,21.48
2022-10-17T07:04:14.869Z,16.70
2022-10-17T07:06:42.530Z,17.20
2022-10-17T07:09:09.954Z,18.17
2022-10-17T07:11:37.379Z,16.90
2022-10-17T07:14:04.799Z,15.85
2022-10-17T07:16:32.109Z,16.30
2022-10-17T07:18:59.314Z,15.15
2022-10-17T07:21:26.542Z,14.50
2022-10-17T07:23:53.800Z,12.40
2022-10-17T07:26:21.160Z,15.00
2022-10-17T07:28:52.898Z,16.30
2022-10-17T07:31:21.525Z,11.70
2022-10-17T07:33:49.317Z,14.07
2022-10-17T07:36:17.746Z,13.35
2022-10-17T07:38:45.371Z,13.52
2022-10-17T07:41:17.807Z,13.35
2022-10-17T07:43:48.389Z,12.15
2022-10-17T07:46:15.682Z,15.55
2022-10-17T07:48:42.876Z,13.13
2022-10-17T07:51:10.695Z,17.45
2022-10-17T07:53:39.814Z,9.50
2022-10-17T07:56:09.902Z,13.48
2022-10-17T07:58:38.357Z,16.08
2022-10-17T08:01:16.220Z,16.02
2022-10-17T08:03:48.792Z,10.45
2022-10-17T08:06:16.502Z,18.20
2022-10-17T08:08:44.280Z,13.38
2022-10-17T08:11:14.533Z,15.38
2022-10-17T08:13:42.347Z,14.50
2022-10-17T08:16:11.576Z,12.27
2022-10-17T08:18:42.235Z,17.33
2022-10-17T08:21:09.986Z,11.10
2022-10-17T08:23:37.655Z,12.93
2022-10-17T08:26:06.887Z,11.50
2022-10-17T08:28:36.348Z,18.17
2022-10-17T08:31:06.191Z,19.65
2022-10-17T08:33:33.801Z,16.58
2022-10-17T08:36:02.227Z,15.50
2022-10-17T08:38:34.652Z,16.08
2022-10-17T08:41:14.793Z,18.52
2022-10-17T08:44:12.272Z,16.63
2022-10-17T08:46:42.732Z,12.25
2022-10-17T08:49:33.848Z,13.25
2022-10-17T08:52:15.237Z,14.77
2022-10-17T08:54:46.309Z,11.20
2022-10-17T08:57:15.731Z,13.23
2022-10-17T08:59:45.057Z,13.48
2022-10-17T09:02:54.616Z,13.82
2022-10-17T09:05:26.589Z,16.23
2022-10-17T09:08:19.454Z,13.63
2022-10-17T09:11:02.012Z,9.25
2022-10-17T09:13:50.171Z,15.63
2022-10-17T09:16:32.465Z,12.95
2022-10-17T09:19:24.646Z,12.63
2022-10-17T09:22:05.961Z,15.07
2022-10-17T09:24:43.761Z,11.52
2022-10-17T09:27:40.776Z,11.60
2022-10-17T09:30:40.075Z,11.55
2022-10-17T09:33:28.066Z,13.23
2022-10-17T09:36:10.946Z,13.38
2022-10-17T09:38:44.975Z,10.07
2022-10-17T09:44:25.169Z,10.10
2022-10-17T09:46:55.113Z,13.07
2022-10-17T09:49:38.986Z,10.80
2022-10-17T09:52:22.428Z,11.88
2022-10-17T09:54:53.481Z,11.82
2022-10-17T09:57:22.302Z,11.23
2022-10-17T10:00:20.170Z,11.45
2022-10-17T10:02:47.397Z,14.05
2022-10-17T10:05:21.983Z,13.00
2022-10-17T10:08:13.019Z,9.77
2022-10-17T10:10:43.782Z,9.07
2022-10-17T10:13:13.760Z,9.00
2022-10-17T10:15:49.113Z,11.40
2022-10-17T10:18:25.604Z,11.95
2022-10-17T10:21:11.677Z,10.75
2022-10-17T10:23:41.504Z,8.82
2022-10-17T10:26:22.428Z,12.25
2022-10-17T10:29:02.147Z,10.27
2022-10-17T10:31:40.186Z,9.75
2022-10-17T10:34:30.311Z,14.90
2022-10-17T10:37:03.738Z,8.93
2022-10-17T10:39:36.821Z,11.55
2022-10-17T10:42:08.816Z,14.75
2022-10-17T10:44:38.472Z,12.25
2022-10-17T10:47:18.991Z,10.40
2022-10-17T10:49:46.528Z,8.00
2022-10-17T10:52:43.479Z,9.40
2022-10-17T10:55:45.961Z,12.13
2022-10-17T10:58:33.412Z,10.15
2022-10-17T11:01:08.246Z,12.05
2022-10-17T11:03:43.048Z,16.92
2022-10-17T11:06:22.962Z,6.82
2022-10-17T11:09:11.236Z,9.23
2022-10-17T11:11:43.971Z,10.10
2022-10-17T11:14:37.547Z,11.50
2022-10-17T11:17:17.553Z,10.68
2022-10-17T11:19:53.398Z,10.38
2022-10-17T11:22:29.119Z,10.05
2022-10-17T11:24:59.922Z,8.77
2022-10-17T11:27:30.385Z,9.43
2022-10-17T11:29:58.437Z,6.47
2022-10-17T11:32:38.152Z,7.90
2022-10-17T11:35:08.815Z,12.50
2022-10-17T11:37:45.996Z,9.85
2022-10-17T11:40:24.385Z,9.10
2022-10-17T11:43:04.186Z,9.10
2022-10-17T11:45:37.102Z,9.35
2022-10-17T11:48:14.520Z,9.98
2022-10-17T11:53:43.652Z,9.50
2022-10-17T11:56:12.957Z,8.20
2022-10-17T11:58:44.129Z,9.38
2022-10-17T12:01:51.976Z,11.55
2022-10-17T12:04:50.240Z,8.70
2022-10-17T12:07:34.677Z,9.38
2022-10-17T12:10:27.349Z,11.25
2022-10-17T12:12:54.584Z,10.05
2022-10-17T12:15:24.274Z,9.55
2022-10-17T12:18:04.428Z,10.13
2022-10-17T12:20:34.598Z,9.43
2022-10-17T12:23:13.276Z,9.18
2022-10-17T12:25:53.693Z,6.78
2022-10-17T12:28:41.232Z,5.95
2022-10-17T12:31:15.821Z,7.45
2022-10-17T12:33:46.236Z,7.28
2022-10-17T12:36:21.284Z,10.73
2022-10-17T12:38:51.326Z,7.80
2022-10-17T12:41:38.347Z,10.77
2022-10-17T12:44:14.552Z,10.32
2022-10-17T12:46:51.379Z,8.07
2022-10-17T12:49:37.436Z,8.77
2022-10-17T12:52:32.101Z,6.32
2022-10-17T12:55:11.933Z,6.70
2022-10-17T12:57:47.685Z,6.72
2022-10-17T13:00:28.667Z,9.10
2022-10-17T13:03:02.248Z,10.43
2022-10-17T13:08:01.163Z,9.20
2022-10-17T13:10:32.194Z,9.02
2022-10-17T13:13:21.765Z,8.30
2022-10-17T13:15:54.384Z,7.28
2022-10-17T13:18:28.207Z,10.30
2022-10-17T13:21:03.070Z,11.00
2022-10-17T13:23:33.597Z,15.07
2022-10-17T13:26:21.609Z,11.95
2022-10-17T13:31:44.860Z,68.05
2022-10-17T13:34:21.051Z,15.23
2022-10-17T13:36:51.490Z,9.68
2022-10-17T13:39:32.368Z,6.90
2022-10-17T13:42:25.090Z,5.90
2022-10-17T13:44:52.936Z,7.13
2022-10-17T13:47:32.958Z,7.22
2022-10-17T13:50:00.543Z,12.82
2022-10-17T13:52:30.533Z,13.65
2022-10-17T13:55:16.874Z,7.70
2022-10-17T13:57:45.102Z,9.60
2022-10-17T14:00:20.280Z,8.48
2022-10-17T14:02:48.565Z,10.18
2022-10-17T14:05:21.422Z,8.20
2022-10-17T14:08:12.425Z,10.90
2022-10-17T14:10:41.497Z,7.47
2022-10-17T14:13:19.399Z,11.40
2022-10-17T14:15:47.057Z,10.55
2022-10-17T14:18:36.417Z,10.68
2022-10-17T14:21:36.937Z,16.33
2022-10-17T14:24:11.866Z,13.77
2022-10-17T14:26:48.164Z,12.43
2022-10-17T14:29:25.308Z,13.18
2022-10-17T14:32:00.086Z,11.82
2022-10-17T14:34:36.922Z,13.80
2022-10-17T14:37:29.025Z,15.13
2022-10-17T14:39:59.106Z,26.45
2022-10-17T14:42:28.894Z,23.17
2022-10-17T14:45:05.613Z,10.27
2022-10-17T14:47:49.003Z,14.98
2022-10-17T14:50:16.401Z,21.73
2022-10-17T14:53:01.865Z,36.63
2022-10-17T14:55:30.804Z,59.58
2022-10-17T14:57:57.996Z,96.72
2022-10-17T15:00:25.531Z,110.72
2022-10-17T15:02:54.939Z,24.92
2022-10-17T15:05:23.527Z,24.95
2022-10-17T15:07:51.120Z,22.73
2022-10-17T15:10:44.997Z,38.53
2022-10-17T15:13:31.076Z,19.02
2022-10-17T15:15:59.461Z,39.72
2022-10-17T15:18:26.711Z,37.85
2022-10-17T15:21:04.586Z,37.50
2022-10-17T15:23:33.901Z,18.65
2022-10-17T15:26:01.928Z,15.75
2022-10-17T15:28:29.119Z,13.43
2022-10-17T15:30:56.356Z,14.90
2022-10-17T15:33:23.481Z,43.08
2022-10-17T15:35:51.542Z,77.75
2022-10-17T15:38:18.857Z,140.88
2022-10-17T15:40:49.041Z,102.90
2022-10-17T15:43:19.758Z,89.72
2022-10-17T15:45:47.822Z,186.40
2022-10-17T15:48:30.026Z,87.50
2022-10-17T15:50:59.295Z,75.75
2022-10-17T15:53:26.551Z,101.10
2022-10-17T15:55:53.855Z,83.10
2022-10-17T15:58:21.707Z,51.88
2022-10-17T16:00:48.987Z,37.55
2022-10-17T16:03:16.259Z,35.95
2022-10-17T16:05:43.415Z,31.70
2022-10-17T16:08:10.596Z,27.67
2022-10-17T16:10:40.019Z,24.23
2022-10-17T16:13:07.161Z,26.92
2022-10-17T16:15:34.293Z,20.50
2022-10-17T16:18:04.247Z,19.73
2022-10-17T16:20:33.871Z,16.90
2022-10-17T16:23:03.339Z,18.40
2022-10-17T16:25:32.734Z,22.27
2022-10-17T16:28:00.994Z,21.30
2022-10-17T16:30:30.347Z,16.75
2022-10-17T16:32:57.882Z,12.20
2022-10-17T16:35:33.330Z,12.23
2022-10-17T16:38:04.411Z,15.20
2022-10-17T16:40:31.632Z,41.10
2022-10-17T16:42:58.976Z,89.97
2022-10-17T16:45:26.401Z,96.85
2022-10-17T16:47:53.775Z,96.68
2022-10-17T16:50:20.951Z,58.28
2022-10-17T16:52:48.143Z,30.40
2022-10-17T16:55:18.906Z,36.90
2022-10-17T16:57:49.004Z,36.88
2022-10-17T17:00:17.931Z,27.77
2022-10-17T17:02:47.899Z,35.95
2022-10-17T17:05:15.581Z,30.63
2022-10-17T17:07:42.957Z,29.25
2022-10-17T17:10:10.491Z,30.35
2022-10-17T17:12:37.775Z,32.22
2022-10-17T17:15:05.521Z,30.52
2022-10-17T17:17:48.724Z,22.52
2022-10-17T17:20:17.551Z,21.45
2022-10-17T17:22:44.687Z,18.20
2022-10-17T17:25:11.868Z,14.25
2022-10-17T17:27:38.981Z,17.45
2022-10-17T17:30:06.758Z,15.40
2022-10-17T17:32:34.025Z,14.32
2022-10-17T17:35:01.137Z,18.52
2022-10-17T17:37:28.507Z,16.50
2022-10-17T17:39:55.891Z,17.08
2022-10-17T17:42:23.182Z,13.18
2022-10-17T17:44:50.743Z,16.10
2022-10-17T17:47:17.882Z,16.23
2022-10-17T17:49:45.090Z,16.77
2022-10-17T17:52:12.348Z,16.35
2022-10-17T17:54:40.989Z,13.50
2022-10-17T17:59:23.143Z,14.23
2022-10-17T18:01:50.685Z,17.83
2022-10-17T18:04:17.892Z,12.52
2022-10-17T18:06:45.317Z,15.70
2022-10-17T18:09:12.490Z,17.85
2022-10-17T18:11:39.766Z,14.30
2022-10-17T18:14:12.280Z,13.38
2022-10-17T18:16:39.566Z,14.00
2022-10-17T18:19:09.261Z,14.68
2022-10-17T18:21:37.544Z,15.45
2022-10-17T18:24:05.456Z,16.52
2022-10-17T18:26:33.298Z,16.80
2022-10-17T18:29:00.575Z,16.08
2022-10-17T18:31:36.038Z,15.75
2022-10-17T18:34:04.816Z,16.13
2022-10-17T18:36:33.460Z,12.60
2022-10-17T18:39:01.613Z,15.23
2022-10-17T18:41:29.942Z,15.88
2022-10-17T18:43:57.606Z,14.50
2022-10-17T18:46:31.402Z,16.23
2022-10-17T18:48:58.918Z,14.05
2022-10-17T18:51:27.035Z,12.00
2022-10-17T18:53:58.854Z,16.05
2022-10-17T18:56:26.663Z,15.27
2022-10-17T18:58:54.342Z,16.13
2022-10-17T19:01:24.577Z,17.60
2022-10-17T19:03:55.535Z,19.27
2022-10-17T19:06:25.778Z,17.63
2022-10-17T19:08:53.432Z,19.33
2022-10-17T19:11:23.544Z,17.55
2022-10-17T19:13:51.682Z,15.40
2022-10-17T19:16:23.570Z,17.27
2022-10-17T19:18:57.445Z,21.55
2022-10-17T19:23:55.232Z,15.52
2022-10-17T19:26:23.276Z,16.90
2022-10-17T19:28:54.998Z,14.98
2022-10-17T19:31:27.041Z,13.43
2022-10-17T19:33:55.600Z,17.63
2022-10-17T19:36:28.859Z,15.68
2022-10-17T19:39:00.090Z,17.13
2022-10-17T19:41:28.199Z,17.50
2022-10-17T19:43:55.506Z,13.73
2022-10-17T19:46:25.469Z,22.75
2022-10-17T19:48:53.336Z,17.75
2022-10-17T19:51:24.525Z,12.70
2022-10-17T19:53:53.090Z,13.75
2022-10-17T19:56:22.196Z,14.10
2022-10-17T19:58:50.542Z,15.18
2022-10-17T20:01:20.704Z,12.88
2022-10-17T20:03:48.636Z,14.13
2022-10-17T20:06:16.511Z,14.38
2022-10-17T20:08:44.205Z,12.98
2022-10-17T20:11:16.381Z,15.63
2022-10-17T20:13:45.003Z,15.43
2022-10-17T20:16:15.093Z,11.25
2022-10-17T20:18:42.546Z,14.52
2022-10-17T20:21:15.252Z,12.82
2022-10-17T20:23:43.493Z,11.77
2022-10-17T20:26:25.866Z,11.93
2022-10-17T20:29:02.748Z,13.18
2022-10-17T20:31:30.372Z,13.07
2022-10-17T20:34:00.936Z,15.45
2022-10-17T20:36:28.103Z,13.43
2022-10-17T20:38:57.342Z,16.42
2022-10-17T20:41:25.177Z,14.30
2022-10-17T20:43:54.270Z,14.82
2022-10-17T20:46:35.474Z,13.55
2022-10-17T20:49:05.539Z,11.77
2022-10-17T20:51:33.464Z,12.73
2022-10-17T20:54:00.701Z,14.90
2022-10-17T20:56:30.096Z,14.35
2022-10-17T20:59:03.414Z,8.52
2022-10-17T21:01:32.110Z,13.93
2022-10-17T21:04:10.532Z,13.18
2022-10-17T21:06:43.577Z,9.90
2022-10-17T21:09:10.814Z,13.25
2022-10-17T21:11:38.136Z,11.00
2022-10-17T21:14:07.336Z,10.10
2022-10-17T21:16:36.665Z,12.27
2022-10-17T21:19:05.072Z,13.43
2022-10-17T21:21:34.983Z,12.98
2022-10-17T21:24:05.176Z,14.63
2022-10-17T21:26:37.235Z,14.88
2022-10-17T21:29:06.042Z,12.10
2022-10-17T21:31:38.079Z,16.13
2022-10-17T21:34:28.754Z,13.70
2022-10-17T21:36:56.561Z,16.73
2022-10-17T21:39:25.066Z,14.35
2022-10-17T21:41:53.389Z,16.60
2022-10-17T21:44:23.737Z,13.73
2022-10-17T21:46:51.789Z,14.80
2022-10-17T21:49:21.989Z,11.05
2022-10-17T21:51:50.299Z,18.15
2022-10-17T21:54:19.130Z,11.75
2022-10-17T21:56:46.513Z,9.88
2022-10-17T21:59:13.972Z,11.50
2022-10-17T22:01:43.150Z,12.93
2022-10-17T22:04:18.687Z,12.48
2022-10-17T22:06:47.909Z,12.50
2022-10-17T22:09:23.976Z,14.52
2022-10-17T22:11:54.512Z,12.82
2022-10-17T22:14:23.816Z,16.13
2022-10-17T22:16:51.535Z,14.15
2022-10-17T22:19:25.681Z,14.68
2022-10-17T22:21:53.448Z,15.02
2022-10-17T22:26:54.068Z,16.88
2022-10-17T22:29:21.553Z,20.80
2022-10-17T22:31:48.936Z,17.08
2022-10-17T22:34:17.280Z,21.48
2022-10-17T22:36:44.876Z,18.08
2022-10-17T22:39:12.235Z,14.55
2022-10-17T22:41:39.672Z,15.80
2022-10-17T22:44:06.995Z,18.60
2022-10-17T22:46:34.388Z,20.27
2022-10-17T22:49:01.593Z,23.63
2022-10-17T22:51:28.791Z,23.10
2022-10-17T22:53:56.125Z,18.73
2022-10-17T22:56:23.765Z,19.67
2022-10-17T22:58:51.420Z,18.10
2022-10-17T23:01:24.216Z,10.35
2022-10-17T23:03:52.747Z,11.35
2022-10-17T23:06:20.688Z,10.48
2022-10-17T23:08:48.594Z,10.68
2022-10-17T23:11:16.511Z,12.90
2022-10-17T23:13:43.752Z,8.68
2022-10-17T23:16:11.245Z,10.13
2022-10-17T23:18:39.231Z,14.07
2022-10-17T23:21:06.741Z,11.88
2022-10-17T23:23:34.130Z,19.80
2022-10-17T23:26:10.500Z,17.65
2022-10-17T23:28:38.327Z,13.38
2022-10-17T23:31:23.765Z,19.15
2022-10-17T23:33:51.101Z,20.33
2022-10-17T23:36:20.266Z,12.48
2022-10-17T23:38:48.730Z,8.98
2022-10-17T23:41:16.569Z,14.98
2022-10-17T23:43:44.252Z,11.10
2022-10-17T23:46:11.749Z,7.70
2022-10-17T23:48:39.737Z,12.75
2022-10-17T23:51:08.912Z,15.48
2022-10-17T23:53:37.513Z,13.07
2022-10-17T23:56:05.612Z,10.68
2022-10-17T23:58:32.999Z,9.73
